Huvudsida
METAR-TAF:

METAR-TAF

Flygplatser :

Småland Airport

Växjö, Sverige

latitud: 56-51N, longitud: 014-50E, höjd: 199 m

Aktuellt väderrapport

Denna rapport gjordes för 14 minuter sedan, klockan 01:20 UTC
Vind 4 kt från sydväst
Temperatur 9°C
Fuktighet 93%
Tryck 1021 hPa
Sikt 10 km eller mer

METAR: ESMX 220120Z AUTO 22004KT 9999 NCD 09/08 Q1021

Tid: 03:34 (01:34 UTC)

Väderprognos

Denna rapport gjordes för 2 timmar och 4 minuter sedan, klockan 23:30 UTC
Prognos gäller från 22 kl. 00 UTC till 22 kl. 02 UTC
Vind 4 kt från väst
Sikt 10 km eller mer
Inga moln under 1 500 m eller inga cumulonimbus

TAF: ESMX 212330Z 2200/2202 27004KT CAVOK

Aktuella väderrapporter och prognoser från 4000 flygplatser (METAR- och TAF-rapporter).

De tillgängliga stationerna syns som gula och röda prickar på kartan.

För musen över prickarna för att se namnen på stationerna.

Klicka sedan för att få väderrapporter och prognoser.

För att ändra kartan: Klicka på de gröna knapparna med ett svart kors på för att zooma in; den gröna knappen med ett streck på för att zooma ut; eller på de gröna pilarna för angränsande kartor.


METAR-TAF: